sensor_id;sensor_type;location;lat;lon;timestamp;temperature;humidity
67748;HTU21D;54543;50.712;6.070;2023-06-14T00:02:13;18.55;47.25
67748;HTU21D;54543;50.712;6.070;2023-06-14T00:04:39;18.51;47.34
67748;HTU21D;54543;50.712;6.070;2023-06-14T00:07:07;18.47;47.45
67748;HTU21D;54543;50.712;6.070;2023-06-14T00:09:34;18.42;47.53
67748;HTU21D;54543;50.712;6.070;2023-06-14T00:12:00;18.41;47.63
67748;HTU21D;54543;50.712;6.070;2023-06-14T00:14:26;18.38;47.64
67748;HTU21D;54543;50.712;6.070;2023-06-14T00:16:51;18.35;47.61
67748;HTU21D;54543;50.712;6.070;2023-06-14T00:19:26;18.33;47.70
67748;HTU21D;54543;50.712;6.070;2023-06-14T00:21:52;18.30;47.74
67748;HTU21D;54543;50.712;6.070;2023-06-14T00:24:18;18.26;47.84
67748;HTU21D;54543;50.712;6.070;2023-06-14T00:26:43;18.22;48.07
67748;HTU21D;54543;50.712;6.070;2023-06-14T00:29:09;18.18;48.09
67748;HTU21D;54543;50.712;6.070;2023-06-14T00:31:35;18.14;48.28
67748;HTU21D;54543;50.712;6.070;2023-06-14T00:34:00;18.12;48.31
67748;HTU21D;54543;50.712;6.070;2023-06-14T00:36:26;18.09;48.62
67748;HTU21D;54543;50.712;6.070;2023-06-14T00:38:51;18.07;48.50
67748;HTU21D;54543;50.712;6.070;2023-06-14T00:41:17;18.02;48.62
67748;HTU21D;54543;50.712;6.070;2023-06-14T00:43:43;17.94;48.81
67748;HTU21D;54543;50.712;6.070;2023-06-14T00:46:08;17.91;48.99
67748;HTU21D;54543;50.712;6.070;2023-06-14T00:48:35;17.88;49.11
67748;HTU21D;54543;50.712;6.070;2023-06-14T00:51:01;17.83;49.44
67748;HTU21D;54543;50.712;6.070;2023-06-14T00:53:30;17.82;49.32
67748;HTU21D;54543;50.712;6.070;2023-06-14T00:55:57;17.80;49.34
67748;HTU21D;54543;50.712;6.070;2023-06-14T00:58:22;17.79;49.34
67748;HTU21D;54543;50.712;6.070;2023-06-14T01:00:48;17.77;49.53
67748;HTU21D;54543;50.712;6.070;2023-06-14T01:03:14;17.76;49.44
67748;HTU21D;54543;50.712;6.070;2023-06-14T01:05:48;17.75;49.51
67748;HTU21D;54543;50.712;6.070;2023-06-14T01:08:28;17.76;50.13
67748;HTU21D;54543;50.712;6.070;2023-06-14T01:10:57;17.76;49.49
67748;HTU21D;54543;50.712;6.070;2023-06-14T01:13:35;17.77;50.16
67748;HTU21D;54543;50.712;6.070;2023-06-14T01:16:02;17.78;49.50
67748;HTU21D;54543;50.712;6.070;2023-06-14T01:18:29;17.77;49.41
67748;HTU21D;54543;50.712;6.070;2023-06-14T01:20:55;17.80;49.37
67748;HTU21D;54543;50.712;6.070;2023-06-14T01:23:22;17.79;49.32
67748;HTU21D;54543;50.712;6.070;2023-06-14T01:25:49;17.79;49.28
67748;HTU21D;54543;50.712;6.070;2023-06-14T01:28:19;17.79;49.25
67748;HTU21D;54543;50.712;6.070;2023-06-14T01:30:48;17.79;49.29
67748;HTU21D;54543;50.712;6.070;2023-06-14T01:33:17;17.80;49.24
67748;HTU21D;54543;50.712;6.070;2023-06-14T01:35:46;17.77;49.19
67748;HTU21D;54543;50.712;6.070;2023-06-14T01:38:12;17.76;49.24
67748;HTU21D;54543;50.712;6.070;2023-06-14T01:40:39;17.73;49.26
67748;HTU21D;54543;50.712;6.070;2023-06-14T01:43:05;17.72;49.34
67748;HTU21D;54543;50.712;6.070;2023-06-14T01:45:32;17.70;49.35
67748;HTU21D;54543;50.712;6.070;2023-06-14T01:47:59;17.68;49.37
67748;HTU21D;54543;50.712;6.070;2023-06-14T01:50:28;17.64;49.60
67748;HTU21D;54543;50.712;6.070;2023-06-14T01:52:55;17.61;49.54
67748;HTU21D;54543;50.712;6.070;2023-06-14T01:55:21;17.59;49.63
67748;HTU21D;54543;50.712;6.070;2023-06-14T01:57:48;17.54;49.69
67748;HTU21D;54543;50.712;6.070;2023-06-14T02:00:15;17.51;49.76
67748;HTU21D;54543;50.712;6.070;2023-06-14T02:02:41;17.48;49.95
67748;HTU21D;54543;50.712;6.070;2023-06-14T02:05:06;17.43;50.07
67748;HTU21D;54543;50.712;6.070;2023-06-14T02:07:33;17.37;50.42
67748;HTU21D;54543;50.712;6.070;2023-06-14T02:09:59;17.33;50.56
67748;HTU21D;54543;50.712;6.070;2023-06-14T02:12:25;17.28;50.57
67748;HTU21D;54543;50.712;6.070;2023-06-14T02:14:51;17.21;50.66
67748;HTU21D;54543;50.712;6.070;2023-06-14T02:17:16;17.17;50.79
67748;HTU21D;54543;50.712;6.070;2023-06-14T02:19:42;17.15;50.88
67748;HTU21D;54543;50.712;6.070;2023-06-14T02:22:08;17.10;50.85
67748;HTU21D;54543;50.712;6.070;2023-06-14T02:24:33;17.07;50.96
67748;HTU21D;54543;50.712;6.070;2023-06-14T02:26:59;17.05;51.11
67748;HTU21D;54543;50.712;6.070;2023-06-14T02:29:25;17.04;50.94
67748;HTU21D;54543;50.712;6.070;2023-06-14T02:31:51;17.00;51.10
67748;HTU21D;54543;50.712;6.070;2023-06-14T02:34:16;16.96;50.98
67748;HTU21D;54543;50.712;6.070;2023-06-14T02:36:43;16.95;50.88
67748;HTU21D;54543;50.712;6.070;2023-06-14T02:39:11;17.00;50.74
67748;HTU21D;54543;50.712;6.070;2023-06-14T02:41:37;17.01;50.63
67748;HTU21D;54543;50.712;6.070;2023-06-14T02:44:03;17.01;50.56
67748;HTU21D;54543;50.712;6.070;2023-06-14T02:46:29;17.00;50.59
67748;HTU21D;54543;50.712;6.070;2023-06-14T02:48:54;16.99;50.69
67748;HTU21D;54543;50.712;6.070;2023-06-14T02:51:20;16.96;50.79
67748;HTU21D;54543;50.712;6.070;2023-06-14T02:53:46;16.95;50.76
67748;HTU21D;54543;50.712;6.070;2023-06-14T02:56:11;16.94;50.76
67748;HTU21D;54543;50.712;6.070;2023-06-14T02:58:37;16.93;50.70
67748;HTU21D;54543;50.712;6.070;2023-06-14T03:01:05;16.94;50.66
67748;HTU21D;54543;50.712;6.070;2023-06-14T03:03:31;16.92;50.68
67748;HTU21D;54543;50.712;6.070;2023-06-14T03:05:57;16.90;50.64
67748;HTU21D;54543;50.712;6.070;2023-06-14T03:08:22;16.91;50.67
67748;HTU21D;54543;50.712;6.070;2023-06-14T03:10:53;16.89;50.72
67748;HTU21D;54543;50.712;6.070;2023-06-14T03:13:18;16.88;50.82
67748;HTU21D;54543;50.712;6.070;2023-06-14T03:15:48;16.90;50.86
67748;HTU21D;54543;50.712;6.070;2023-06-14T03:18:18;16.90;50.88
67748;HTU21D;54543;50.712;6.070;2023-06-14T03:20:44;16.93;51.06
67748;HTU21D;54543;50.712;6.070;2023-06-14T03:23:11;17.00;50.81
67748;HTU21D;54543;50.712;6.070;2023-06-14T03:25:37;17.06;50.62
67748;HTU21D;54543;50.712;6.070;2023-06-14T03:28:04;17.11;50.50
67748;HTU21D;54543;50.712;6.070;2023-06-14T03:30:31;17.14;50.50
67748;HTU21D;54543;50.712;6.070;2023-06-14T03:32:57;17.13;50.59
67748;HTU21D;54543;50.712;6.070;2023-06-14T03:35:23;17.16;50.56
67748;HTU21D;54543;50.712;6.070;2023-06-14T03:37:49;17.19;50.48
67748;HTU21D;54543;50.712;6.070;2023-06-14T03:40:16;17.23;50.40
67748;HTU21D;54543;50.712;6.070;2023-06-14T03:42:42;17.24;50.37
67748;HTU21D;54543;50.712;6.070;2023-06-14T03:45:07;17.24;50.28
67748;HTU21D;54543;50.712;6.070;2023-06-14T03:47:34;17.22;50.45
67748;HTU21D;54543;50.712;6.070;2023-06-14T03:50:00;17.20;50.57
67748;HTU21D;54543;50.712;6.070;2023-06-14T03:52:27;17.16;50.90
67748;HTU21D;54543;50.712;6.070;2023-06-14T03:54:52;17.08;51.24
67748;HTU21D;54543;50.712;6.070;2023-06-14T03:57:19;17.03;51.56
67748;HTU21D;54543;50.712;6.070;2023-06-14T03:59:49;16.98;51.81
67748;HTU21D;54543;50.712;6.070;2023-06-14T04:02:15;16.88;52.11
67748;HTU21D;54543;50.712;6.070;2023-06-14T04:04:42;16.81;52.41
67748;HTU21D;54543;50.712;6.070;2023-06-14T04:07:10;16.79;52.62
67748;HTU21D;54543;50.712;6.070;2023-06-14T04:09:38;16.79;52.68
67748;HTU21D;54543;50.712;6.070;2023-06-14T04:12:05;16.82;52.60
67748;HTU21D;54543;50.712;6.070;2023-06-14T04:14:31;16.86;52.58
67748;HTU21D;54543;50.712;6.070;2023-06-14T04:16:58;16.88;52.65
67748;HTU21D;54543;50.712;6.070;2023-06-14T04:19:24;16.91;52.65
67748;HTU21D;54543;50.712;6.070;2023-06-14T04:21:49;16.93;52.76
67748;HTU21D;54543;50.712;6.070;2023-06-14T04:24:15;16.94;52.94
67748;HTU21D;54543;50.712;6.070;2023-06-14T04:26:43;16.92;53.27
67748;HTU21D;54543;50.712;6.070;2023-06-14T04:29:14;16.93;53.15
67748;HTU21D;54543;50.712;6.070;2023-06-14T04:31:44;16.95;53.31
67748;HTU21D;54543;50.712;6.070;2023-06-14T04:34:10;16.95;53.17
67748;HTU21D;54543;50.712;6.070;2023-06-14T04:36:41;16.99;53.31
67748;HTU21D;54543;50.712;6.070;2023-06-14T04:39:17;16.99;53.65
67748;HTU21D;54543;50.712;6.070;2023-06-14T04:41:46;17.00;53.55
67748;HTU21D;54543;50.712;6.070;2023-06-14T04:44:12;17.03;53.70
67748;HTU21D;54543;50.712;6.070;2023-06-14T04:46:38;17.05;53.75
67748;HTU21D;54543;50.712;6.070;2023-06-14T04:49:12;17.05;53.75
67748;HTU21D;54543;50.712;6.070;2023-06-14T04:51:40;17.06;53.94
67748;HTU21D;54543;50.712;6.070;2023-06-14T04:54:06;17.10;53.97
67748;HTU21D;54543;50.712;6.070;2023-06-14T04:56:35;17.13;53.93
67748;HTU21D;54543;50.712;6.070;2023-06-14T04:59:03;17.18;53.92
67748;HTU21D;54543;50.712;6.070;2023-06-14T05:01:32;17.20;54.01
67748;HTU21D;54543;50.712;6.070;2023-06-14T05:03:59;17.25;54.08
67748;HTU21D;54543;50.712;6.070;2023-06-14T05:06:25;17.30;54.04
67748;HTU21D;54543;50.712;6.070;2023-06-14T05:08:51;17.39;54.03
67748;HTU21D;54543;50.712;6.070;2023-06-14T05:11:17;17.53;53.68
67748;HTU21D;54543;50.712;6.070;2023-06-14T05:13:42;17.68;53.45
67748;HTU21D;54543;50.712;6.070;2023-06-14T05:16:13;17.81;53.30
67748;HTU21D;54543;50.712;6.070;2023-06-14T05:18:41;17.91;52.99
67748;HTU21D;54543;50.712;6.070;2023-06-14T05:21:06;18.03;52.87
67748;HTU21D;54543;50.712;6.070;2023-06-14T05:23:32;18.13;52.72
67748;HTU21D;54543;50.712;6.070;2023-06-14T05:25:58;18.26;52.56
67748;HTU21D;54543;50.712;6.070;2023-06-14T05:28:23;18.35;52.43
67748;HTU21D;54543;50.712;6.070;2023-06-14T05:30:49;18.44;52.42
67748;HTU21D;54543;50.712;6.070;2023-06-14T05:33:15;18.50;52.31
67748;HTU21D;54543;50.712;6.070;2023-06-14T05:35:40;18.56;52.22
67748;HTU21D;54543;50.712;6.070;2023-06-14T05:38:06;18.63;52.18
67748;HTU21D;54543;50.712;6.070;2023-06-14T05:40:33;18.64;52.28
67748;HTU21D;54543;50.712;6.070;2023-06-14T05:42:58;18.67;52.35
67748;HTU21D;54543;50.712;6.070;2023-06-14T05:45:24;18.69;52.44
67748;HTU21D;54543;50.712;6.070;2023-06-14T05:47:50;18.70;52.50
67748;HTU21D;54543;50.712;6.070;2023-06-14T05:50:15;18.73;52.49
67748;HTU21D;54543;50.712;6.070;2023-06-14T05:52:41;18.78;52.56
67748;HTU21D;54543;50.712;6.070;2023-06-14T05:55:07;18.83;52.37
67748;HTU21D;54543;50.712;6.070;2023-06-14T05:57:32;18.87;52.30
67748;HTU21D;54543;50.712;6.070;2023-06-14T05:59:58;18.94;52.10
67748;HTU21D;54543;50.712;6.070;2023-06-14T06:02:24;19.01;52.01
67748;HTU21D;54543;50.712;6.070;2023-06-14T06:04:49;19.08;51.84
67748;HTU21D;54543;50.712;6.070;2023-06-14T06:07:15;19.17;51.67
67748;HTU21D;54543;50.712;6.070;2023-06-14T06:09:41;19.26;51.59
67748;HTU21D;54543;50.712;6.070;2023-06-14T06:12:07;19.36;51.25
67748;HTU21D;54543;50.712;6.070;2023-06-14T06:14:33;19.44;51.05
67748;HTU21D;54543;50.712;6.070;2023-06-14T06:16:58;19.54;50.94
67748;HTU21D;54543;50.712;6.070;2023-06-14T06:19:24;19.65;50.79
67748;HTU21D;54543;50.712;6.070;2023-06-14T06:21:50;19.75;50.60
67748;HTU21D;54543;50.712;6.070;2023-06-14T06:24:16;19.87;50.37
67748;HTU21D;54543;50.712;6.070;2023-06-14T06:26:42;20.00;50.15
67748;HTU21D;54543;50.712;6.070;2023-06-14T06:29:07;20.12;49.92
67748;HTU21D;54543;50.712;6.070;2023-06-14T06:31:33;20.25;49.67
67748;HTU21D;54543;50.712;6.070;2023-06-14T06:33:59;20.34;49.44
67748;HTU21D;54543;50.712;6.070;2023-06-14T06:36:24;20.44;49.33
67748;HTU21D;54543;50.712;6.070;2023-06-14T06:38:53;20.51;49.25
67748;HTU21D;54543;50.712;6.070;2023-06-14T06:41:19;20.57;49.50
67748;HTU21D;54543;50.712;6.070;2023-06-14T06:43:44;20.70;49.40
67748;HTU21D;54543;50.712;6.070;2023-06-14T06:46:10;20.87;49.10
67748;HTU21D;54543;50.712;6.070;2023-06-14T06:48:35;21.03;48.82
67748;HTU21D;54543;50.712;6.070;2023-06-14T06:51:01;21.17;48.41
67748;HTU21D;54543;50.712;6.070;2023-06-14T06:53:26;21.27;48.07
67748;HTU21D;54543;50.712;6.070;2023-06-14T06:55:52;21.30;47.82
67748;HTU21D;54543;50.712;6.070;2023-06-14T06:58:17;21.33;47.63
67748;HTU21D;54543;50.712;6.070;2023-06-14T07:00:43;21.34;47.57
67748;HTU21D;54543;50.712;6.070;2023-06-14T07:03:08;21.36;47.55
67748;HTU21D;54543;50.712;6.070;2023-06-14T07:05:34;21.43;47.48
67748;HTU21D;54543;50.712;6.070;2023-06-14T07:08:00;21.49;47.14
67748;HTU21D;54543;50.712;6.070;2023-06-14T07:10:25;21.58;47.02
67748;HTU21D;54543;50.712;6.070;2023-06-14T07:12:51;21.68;46.92
67748;HTU21D;54543;50.712;6.070;2023-06-14T07:15:16;21.78;46.35
67748;HTU21D;54543;50.712;6.070;2023-06-14T07:17:42;21.85;45.28
67748;HTU21D;54543;50.712;6.070;2023-06-14T07:20:08;21.93;45.09
67748;HTU21D;54543;50.712;6.070;2023-06-14T07:22:39;21.96;44.85
67748;HTU21D;54543;50.712;6.070;2023-06-14T07:25:07;22.02;44.76
67748;HTU21D;54543;50.712;6.070;2023-06-14T07:27:33;22.07;44.46
67748;HTU21D;54543;50.712;6.070;2023-06-14T07:29:59;22.17;44.64
67748;HTU21D;54543;50.712;6.070;2023-06-14T07:32:25;22.28;44.51
67748;HTU21D;54543;50.712;6.070;2023-06-14T07:34:50;22.40;44.46
67748;HTU21D;54543;50.712;6.070;2023-06-14T07:37:16;22.51;43.84
67748;HTU21D;54543;50.712;6.070;2023-06-14T07:39:41;22.56;42.71
67748;HTU21D;54543;50.712;6.070;2023-06-14T07:42:07;22.58;43.17
67748;HTU21D;54543;50.712;6.070;2023-06-14T07:44:32;22.62;43.16
67748;HTU21D;54543;50.712;6.070;2023-06-14T07:46:58;22.72;43.32
67748;HTU21D;54543;50.712;6.070;2023-06-14T07:49:25;22.80;42.76
67748;HTU21D;54543;50.712;6.070;2023-06-14T07:51:51;22.90;42.89
67748;HTU21D;54543;50.712;6.070;2023-06-14T07:54:17;22.92;42.71
67748;HTU21D;54543;50.712;6.070;2023-06-14T07:56:42;22.97;42.80
67748;HTU21D;54543;50.712;6.070;2023-06-14T07:59:08;23.06;42.51
67748;HTU21D;54543;50.712;6.070;2023-06-14T08:01:34;23.10;42.33
67748;HTU21D;54543;50.712;6.070;2023-06-14T08:04:00;23.11;42.19
67748;HTU21D;54543;50.712;6.070;2023-06-14T08:06:25;23.14;42.05
67748;HTU21D;54543;50.712;6.070;2023-06-14T08:08:51;23.20;41.91
67748;HTU21D;54543;50.712;6.070;2023-06-14T08:11:17;23.26;41.97
67748;HTU21D;54543;50.712;6.070;2023-06-14T08:13:42;23.32;41.74
67748;HTU21D;54543;50.712;6.070;2023-06-14T08:16:08;23.39;41.69
67748;HTU21D;54543;50.712;6.070;2023-06-14T08:18:33;23.46;41.49
67748;HTU21D;54543;50.712;6.070;2023-06-14T08:20:59;23.49;40.93
67748;HTU21D;54543;50.712;6.070;2023-06-14T08:23:24;23.47;41.23
67748;HTU21D;54543;50.712;6.070;2023-06-14T08:25:50;23.56;41.14
67748;HTU21D;54543;50.712;6.070;2023-06-14T08:28:15;23.62;41.10
67748;HTU21D;54543;50.712;6.070;2023-06-14T08:30:42;23.67;40.74
67748;HTU21D;54543;50.712;6.070;2023-06-14T08:33:08;23.73;40.55
67748;HTU21D;54543;50.712;6.070;2023-06-14T08:35:33;23.73;40.21
67748;HTU21D;54543;50.712;6.070;2023-06-14T08:38:02;23.72;40.17
67748;HTU21D;54543;50.712;6.070;2023-06-14T08:40:30;23.81;40.07
67748;HTU21D;54543;50.712;6.070;2023-06-14T08:42:57;23.92;40.32
67748;HTU21D;54543;50.712;6.070;2023-06-14T08:45:24;24.01;39.74
67748;HTU21D;54543;50.712;6.070;2023-06-14T08:47:53;24.02;39.24
67748;HTU21D;54543;50.712;6.070;2023-06-14T08:50:24;23.97;39.39
67748;HTU21D;54543;50.712;6.070;2023-06-14T08:52:57;24.01;37.17
67748;HTU21D;54543;50.712;6.070;2023-06-14T08:55:27;24.02;38.78
67748;HTU21D;54543;50.712;6.070;2023-06-14T08:57:57;24.03;39.31
67748;HTU21D;54543;50.712;6.070;2023-06-14T09:00:24;24.10;38.60
67748;HTU21D;54543;50.712;6.070;2023-06-14T09:02:50;24.15;38.59
67748;HTU21D;54543;50.712;6.070;2023-06-14T09:05:26;24.15;37.69
67748;HTU21D;54543;50.712;6.070;2023-06-14T09:07:52;24.20;38.17
67748;HTU21D;54543;50.712;6.070;2023-06-14T09:10:18;24.26;38.33
67748;HTU21D;54543;50.712;6.070;2023-06-14T09:12:45;24.42;38.50
67748;HTU21D;54543;50.712;6.070;2023-06-14T09:15:11;24.56;38.20
67748;HTU21D;54543;50.712;6.070;2023-06-14T09:17:40;24.58;37.14
67748;HTU21D;54543;50.712;6.070;2023-06-14T09:20:08;24.58;37.01
67748;HTU21D;54543;50.712;6.070;2023-06-14T09:22:39;24.55;37.62
67748;HTU21D;54543;50.712;6.070;2023-06-14T09:25:05;24.61;37.60
67748;HTU21D;54543;50.712;6.070;2023-06-14T09:27:32;24.68;37.30
67748;HTU21D;54543;50.712;6.070;2023-06-14T09:29:58;24.77;37.37
67748;HTU21D;54543;50.712;6.070;2023-06-14T09:32:24;24.85;37.13
67748;HTU21D;54543;50.712;6.070;2023-06-14T09:34:50;24.91;37.05
67748;HTU21D;54543;50.712;6.070;2023-06-14T09:37:32;24.97;34.87
67748;HTU21D;54543;50.712;6.070;2023-06-14T09:39:58;24.98;36.74
67748;HTU21D;54543;50.712;6.070;2023-06-14T09:42:24;24.98;36.90
67748;HTU21D;54543;50.712;6.070;2023-06-14T09:44:52;25.02;36.30
67748;HTU21D;54543;50.712;6.070;2023-06-14T09:47:19;25.04;36.38
67748;HTU21D;54543;50.712;6.070;2023-06-14T09:49:45;25.09;36.40
67748;HTU21D;54543;50.712;6.070;2023-06-14T09:52:14;25.10;38.05
67748;HTU21D;54543;50.712;6.070;2023-06-14T09:54:42;25.20;36.75
67748;HTU21D;54543;50.712;6.070;2023-06-14T09:57:20;25.29;35.24
67748;HTU21D;54543;50.712;6.070;2023-06-14T09:59:47;25.28;34.42
67748;HTU21D;54543;50.712;6.070;2023-06-14T10:02:26;25.20;34.53
67748;HTU21D;54543;50.712;6.070;2023-06-14T10:07:42;25.34;34.40
67748;HTU21D;54543;50.712;6.070;2023-06-14T10:10:10;25.37;35.62
67748;HTU21D;54543;50.712;6.070;2023-06-14T10:12:36;25.43;35.86
67748;HTU21D;54543;50.712;6.070;2023-06-14T10:15:02;25.51;35.64
67748;HTU21D;54543;50.712;6.070;2023-06-14T10:17:46;25.56;33.34
67748;HTU21D;54543;50.712;6.070;2023-06-14T10:20:30;25.59;34.94
67748;HTU21D;54543;50.712;6.070;2023-06-14T10:23:10;25.63;33.91
67748;HTU21D;54543;50.712;6.070;2023-06-14T10:25:38;25.66;35.13
67748;HTU21D;54543;50.712;6.070;2023-06-14T10:28:17;25.69;34.07
67748;HTU21D;54543;50.712;6.070;2023-06-14T10:33:27;25.87;35.06
67748;HTU21D;54543;50.712;6.070;2023-06-14T10:36:11;25.95;31.36
67748;HTU21D;54543;50.712;6.070;2023-06-14T10:39:00;26.07;33.15
67748;HTU21D;54543;50.712;6.070;2023-06-14T10:41:27;26.11;34.36
67748;HTU21D;54543;50.712;6.070;2023-06-14T10:46:39;26.18;31.63
67748;HTU21D;54543;50.712;6.070;2023-06-14T10:49:06;26.27;34.39
67748;HTU21D;54543;50.712;6.070;2023-06-14T10:51:42;26.39;31.76
67748;HTU21D;54543;50.712;6.070;2023-06-14T10:54:14;26.41;33.66
67748;HTU21D;54543;50.712;6.070;2023-06-14T10:56:47;26.40;30.90
67748;HTU21D;54543;50.712;6.070;2023-06-14T10:59:14;26.32;33.88
67748;HTU21D;54543;50.712;6.070;2023-06-14T11:01:58;26.30;31.68
67748;HTU21D;54543;50.712;6.070;2023-06-14T11:04:46;26.36;32.82
67748;HTU21D;54543;50.712;6.070;2023-06-14T11:10:17;26.53;33.73
67748;HTU21D;54543;50.712;6.070;2023-06-14T11:12:49;26.62;32.35
67748;HTU21D;54543;50.712;6.070;2023-06-14T11:15:15;26.73;33.12
67748;HTU21D;54543;50.712;6.070;2023-06-14T11:17:51;26.83;31.68
67748;HTU21D;54543;50.712;6.070;2023-06-14T11:20:18;26.85;32.09
67748;HTU21D;54543;50.712;6.070;2023-06-14T11:22:45;26.81;32.33
67748;HTU21D;54543;50.712;6.070;2023-06-14T11:25:14;26.93;32.33
67748;HTU21D;54543;50.712;6.070;2023-06-14T11:27:43;27.04;30.09
67748;HTU21D;54543;50.712;6.070;2023-06-14T11:30:09;27.00;31.26
67748;HTU21D;54543;50.712;6.070;2023-06-14T11:32:36;26.84;31.82
67748;HTU21D;54543;50.712;6.070;2023-06-14T11:35:03;26.77;31.96
67748;HTU21D;54543;50.712;6.070;2023-06-14T11:37:30;26.90;31.70
67748;HTU21D;54543;50.712;6.070;2023-06-14T11:39:59;26.95;30.93
67748;HTU21D;54543;50.712;6.070;2023-06-14T11:42:28;27.02;30.77
67748;HTU21D;54543;50.712;6.070;2023-06-14T11:44:55;27.13;30.54
67748;HTU21D;54543;50.712;6.070;2023-06-14T11:47:21;27.16;31.07
67748;HTU21D;54543;50.712;6.070;2023-06-14T11:49:47;27.27;30.90
67748;HTU21D;54543;50.712;6.070;2023-06-14T11:52:13;27.37;30.54
67748;HTU21D;54543;50.712;6.070;2023-06-14T11:54:39;27.41;30.98
67748;HTU21D;54543;50.712;6.070;2023-06-14T11:57:09;27.39;31.11
67748;HTU21D;54543;50.712;6.070;2023-06-14T11:59:39;27.39;29.10
67748;HTU21D;54543;50.712;6.070;2023-06-14T12:02:06;27.42;30.45
67748;HTU21D;54543;50.712;6.070;2023-06-14T12:04:32;27.43;30.47
67748;HTU21D;54543;50.712;6.070;2023-06-14T12:07:11;27.49;28.67
67748;HTU21D;54543;50.712;6.070;2023-06-14T12:12:26;27.58;30.35
67748;HTU21D;54543;50.712;6.070;2023-06-14T12:14:52;27.61;30.16
67748;HTU21D;54543;50.712;6.070;2023-06-14T12:17:19;27.68;30.17
67748;HTU21D;54543;50.712;6.070;2023-06-14T12:19:46;27.73;30.05
67748;HTU21D;54543;50.712;6.070;2023-06-14T12:22:12;27.71;30.31
67748;HTU21D;54543;50.712;6.070;2023-06-14T12:24:39;27.72;30.42
67748;HTU21D;54543;50.712;6.070;2023-06-14T12:27:05;27.70;30.31
67748;HTU21D;54543;50.712;6.070;2023-06-14T12:29:31;27.69;30.09
67748;HTU21D;54543;50.712;6.070;2023-06-14T12:31:57;27.67;30.34
67748;HTU21D;54543;50.712;6.070;2023-06-14T12:34:26;27.59;30.08
67748;HTU21D;54543;50.712;6.070;2023-06-14T12:36:53;27.60;30.52
67748;HTU21D;54543;50.712;6.070;2023-06-14T12:39:19;27.66;30.43
67748;HTU21D;54543;50.712;6.070;2023-06-14T12:41:45;27.70;30.51
67748;HTU21D;54543;50.712;6.070;2023-06-14T12:44:12;27.71;30.35
67748;HTU21D;54543;50.712;6.070;2023-06-14T12:46:38;27.79;30.46
67748;HTU21D;54543;50.712;6.070;2023-06-14T12:49:13;27.79;29.97
67748;HTU21D;54543;50.712;6.070;2023-06-14T12:51:39;27.79;30.66
67748;HTU21D;54543;50.712;6.070;2023-06-14T12:54:06;27.82;30.67
67748;HTU21D;54543;50.712;6.070;2023-06-14T12:56:31;27.87;30.96
67748;HTU21D;54543;50.712;6.070;2023-06-14T12:58:58;27.91;30.88
67748;HTU21D;54543;50.712;6.070;2023-06-14T13:01:27;28.00;30.32
67748;HTU21D;54543;50.712;6.070;2023-06-14T13:03:52;27.98;30.21
67748;HTU21D;54543;50.712;6.070;2023-06-14T13:06:22;27.80;30.21
67748;HTU21D;54543;50.712;6.070;2023-06-14T13:08:48;27.61;30.82
67748;HTU21D;54543;50.712;6.070;2023-06-14T13:11:14;27.61;31.19
67748;HTU21D;54543;50.712;6.070;2023-06-14T13:13:40;27.74;31.45
67748;HTU21D;54543;50.712;6.070;2023-06-14T13:16:05;27.83;31.52
67748;HTU21D;54543;50.712;6.070;2023-06-14T13:18:31;27.97;31.10
67748;HTU21D;54543;50.712;6.070;2023-06-14T13:20:57;28.10;31.18
67748;HTU21D;54543;50.712;6.070;2023-06-14T13:23:22;28.11;31.12
67748;HTU21D;54543;50.712;6.070;2023-06-14T13:25:48;28.15;31.23
67748;HTU21D;54543;50.712;6.070;2023-06-14T13:28:16;28.19;31.19
67748;HTU21D;54543;50.712;6.070;2023-06-14T13:30:42;28.19;30.96
67748;HTU21D;54543;50.712;6.070;2023-06-14T13:33:08;28.18;30.87
67748;HTU21D;54543;50.712;6.070;2023-06-14T13:35:33;28.14;30.86
67748;HTU21D;54543;50.712;6.070;2023-06-14T13:37:59;28.15;30.85
67748;HTU21D;54543;50.712;6.070;2023-06-14T13:40:24;28.16;30.60
67748;HTU21D;54543;50.712;6.070;2023-06-14T13:42:50;28.12;30.93
67748;HTU21D;54543;50.712;6.070;2023-06-14T13:45:16;28.09;31.04
67748;HTU21D;54543;50.712;6.070;2023-06-14T13:47:42;28.10;31.11
67748;HTU21D;54543;50.712;6.070;2023-06-14T13:50:07;28.05;30.79
67748;HTU21D;54543;50.712;6.070;2023-06-14T13:52:33;28.00;31.17
67748;HTU21D;54543;50.712;6.070;2023-06-14T13:54:59;27.97;31.23
67748;HTU21D;54543;50.712;6.070;2023-06-14T13:57:25;28.01;30.95
67748;HTU21D;54543;50.712;6.070;2023-06-14T13:59:51;28.03;30.78
67748;HTU21D;54543;50.712;6.070;2023-06-14T14:02:19;28.03;30.84
67748;HTU21D;54543;50.712;6.070;2023-06-14T14:04:46;28.03;30.95
67748;HTU21D;54543;50.712;6.070;2023-06-14T14:07:16;28.09;31.19
67748;HTU21D;54543;50.712;6.070;2023-06-14T14:09:42;28.12;31.14
67748;HTU21D;54543;50.712;6.070;2023-06-14T14:12:08;28.11;31.06
67748;HTU21D;54543;50.712;6.070;2023-06-14T14:14:34;28.14;30.78
67748;HTU21D;54543;50.712;6.070;2023-06-14T14:16:59;28.18;30.72
67748;HTU21D;54543;50.712;6.070;2023-06-14T14:19:25;28.23;30.69
67748;HTU21D;54543;50.712;6.070;2023-06-14T14:21:51;28.25;30.97
67748;HTU21D;54543;50.712;6.070;2023-06-14T14:24:18;28.27;30.45
67748;HTU21D;54543;50.712;6.070;2023-06-14T14:26:44;28.20;30.84
67748;HTU21D;54543;50.712;6.070;2023-06-14T14:29:12;28.35;30.94
67748;HTU21D;54543;50.712;6.070;2023-06-14T14:31:38;28.67;31.49
67748;HTU21D;54543;50.712;6.070;2023-06-14T14:34:04;29.12;31.42
67748;HTU21D;54543;50.712;6.070;2023-06-14T14:36:30;29.61;31.93
67748;HTU21D;54543;50.712;6.070;2023-06-14T14:38:55;30.16;31.74
67748;HTU21D;54543;50.712;6.070;2023-06-14T14:41:21;30.62;31.25
67748;HTU21D;54543;50.712;6.070;2023-06-14T14:43:47;30.98;31.53
67748;HTU21D;54543;50.712;6.070;2023-06-14T14:46:12;31.38;31.25
67748;HTU21D;54543;50.712;6.070;2023-06-14T14:48:38;31.86;31.37
67748;HTU21D;54543;50.712;6.070;2023-06-14T14:51:04;32.43;30.84
67748;HTU21D;54543;50.712;6.070;2023-06-14T14:53:29;32.90;30.25
67748;HTU21D;54543;50.712;6.070;2023-06-14T14:55:55;33.26;29.42
67748;HTU21D;54543;50.712;6.070;2023-06-14T14:58:20;33.70;29.51
67748;HTU21D;54543;50.712;6.070;2023-06-14T15:00:46;34.16;29.36
67748;HTU21D;54543;50.712;6.070;2023-06-14T15:03:12;34.61;28.42
67748;HTU21D;54543;50.712;6.070;2023-06-14T15:05:38;34.98;28.37
67748;HTU21D;54543;50.712;6.070;2023-06-14T15:08:04;35.12;27.15
67748;HTU21D;54543;50.712;6.070;2023-06-14T15:10:35;35.30;27.01
67748;HTU21D;54543;50.712;6.070;2023-06-14T15:13:01;35.65;26.51
67748;HTU21D;54543;50.712;6.070;2023-06-14T15:15:27;35.92;25.11
67748;HTU21D;54543;50.712;6.070;2023-06-14T15:17:52;35.94;24.82
67748;HTU21D;54543;50.712;6.070;2023-06-14T15:20:18;35.86;25.03
67748;HTU21D;54543;50.712;6.070;2023-06-14T15:22:44;35.85;24.98
67748;HTU21D;54543;50.712;6.070;2023-06-14T15:25:09;35.97;24.55
67748;HTU21D;54543;50.712;6.070;2023-06-14T15:27:35;36.13;24.31
67748;HTU21D;54543;50.712;6.070;2023-06-14T15:30:01;36.24;23.58